createdAt,value
2018-07-25T00:00:13.130Z,18.71
2018-07-25T00:02:42.307Z,18.59
2018-07-25T00:05:11.599Z,18.65
2018-07-25T00:07:41.019Z,18.54
2018-07-25T00:10:10.746Z,18.50
2018-07-25T00:12:40.102Z,18.49
2018-07-25T00:15:09.294Z,18.44
2018-07-25T00:17:38.995Z,18.33
2018-07-25T00:20:08.206Z,18.34
2018-07-25T00:22:37.579Z,18.33
2018-07-25T00:25:06.820Z,18.17
2018-07-25T00:27:35.990Z,18.27
2018-07-25T00:30:05.684Z,18.33
2018-07-25T00:32:35.147Z,18.32
2018-07-25T00:35:04.725Z,18.27
2018-07-25T00:37:34.185Z,18.29
2018-07-25T00:40:03.418Z,18.27
2018-07-25T00:42:32.634Z,18.11
2018-07-25T00:45:01.856Z,18.14
2018-07-25T00:47:31.119Z,18.21
2018-07-25T00:50:00.306Z,18.18
2018-07-25T00:52:29.491Z,18.07
2018-07-25T00:54:58.702Z,18.12
2018-07-25T00:57:27.876Z,18.14
2018-07-25T00:59:57.118Z,18.21
2018-07-25T01:02:26.332Z,18.23
2018-07-25T01:04:55.650Z,18.23
2018-07-25T01:07:24.946Z,18.20
2018-07-25T01:09:54.107Z,18.13
2018-07-25T01:12:23.315Z,18.11
2018-07-25T01:14:52.539Z,18.10
2018-07-25T01:17:21.731Z,18.18
2018-07-25T01:19:50.981Z,18.15
2018-07-25T01:22:20.148Z,18.12
2018-07-25T01:24:49.391Z,18.15
2018-07-25T01:27:18.632Z,18.30
2018-07-25T01:29:47.791Z,18.11
2018-07-25T01:32:16.994Z,18.04
2018-07-25T01:34:46.191Z,18.05
2018-07-25T01:37:15.487Z,17.97
2018-07-25T01:39:44.658Z,17.99
2018-07-25T01:42:14.251Z,17.90
2018-07-25T01:44:43.758Z,17.86
2018-07-25T01:47:13.620Z,17.88
2018-07-25T01:49:42.917Z,17.81
2018-07-25T01:52:12.103Z,17.75
2018-07-25T01:54:41.295Z,17.81
2018-07-25T01:57:10.514Z,17.73
2018-07-25T01:59:39.694Z,17.68
2018-07-25T02:02:09.139Z,17.68
2018-07-25T02:04:38.326Z,17.73
2018-07-25T02:07:07.555Z,17.69
2018-07-25T02:09:36.931Z,17.66
2018-07-25T02:12:07.110Z,17.58
2018-07-25T02:14:36.274Z,17.63
2018-07-25T02:17:05.499Z,17.63
2018-07-25T02:19:34.744Z,17.57
2018-07-25T02:22:04.390Z,17.45
2018-07-25T02:24:33.542Z,17.46
2018-07-25T02:27:03.206Z,17.51
2018-07-25T02:29:32.600Z,17.48
2018-07-25T02:32:01.874Z,17.36
2018-07-25T02:34:31.155Z,17.33
2018-07-25T02:37:00.555Z,17.28
2018-07-25T02:39:29.720Z,17.28
2018-07-25T02:41:59.201Z,17.19
2018-07-25T02:44:28.492Z,17.12
2018-07-25T02:46:57.715Z,17.03
2018-07-25T02:49:27.166Z,17.10
2018-07-25T02:51:56.494Z,17.10
2018-07-25T02:54:25.648Z,17.18
2018-07-25T02:56:54.928Z,16.97
2018-07-25T02:59:24.015Z,16.93
2018-07-25T03:01:53.243Z,16.94
2018-07-25T03:04:22.407Z,16.99
2018-07-25T03:06:51.631Z,16.97
2018-07-25T03:09:20.802Z,16.93
2018-07-25T03:11:50.006Z,16.87
2018-07-25T03:14:19.150Z,16.89
2018-07-25T03:16:48.614Z,16.83
2018-07-25T03:19:17.775Z,16.89
2018-07-25T03:21:47.198Z,16.88
2018-07-25T03:24:16.364Z,16.84
2018-07-25T03:26:45.555Z,16.80
2018-07-25T03:29:14.748Z,16.81
2018-07-25T03:31:44.383Z,16.84
2018-07-25T03:34:13.634Z,16.85
2018-07-25T03:36:43.110Z,16.88
2018-07-25T03:39:12.295Z,16.79
2018-07-25T03:41:41.487Z,16.79
2018-07-25T03:44:10.658Z,16.80
2018-07-25T03:46:40.240Z,16.75
2018-07-25T03:49:09.507Z,16.74
2018-07-25T03:51:38.703Z,16.84
2018-07-25T03:54:08.065Z,16.76
2018-07-25T03:56:37.258Z,16.70
2018-07-25T03:59:06.538Z,16.68
2018-07-25T04:01:37.124Z,16.70
2018-07-25T04:04:06.299Z,16.69
2018-07-25T04:06:35.470Z,16.78
2018-07-25T04:09:06.542Z,16.84
2018-07-25T04:11:35.671Z,16.81
2018-07-25T04:14:04.874Z,16.88
2018-07-25T04:16:34.070Z,16.92
2018-07-25T04:19:03.608Z,16.86
2018-07-25T04:21:32.836Z,16.90
2018-07-25T04:24:02.028Z,17.01
2018-07-25T04:26:31.210Z,17.06
2018-07-25T04:29:01.911Z,17.12
2018-07-25T04:31:31.223Z,17.19
2018-07-25T04:34:00.814Z,17.28
2018-07-25T04:36:30.372Z,17.38
2018-07-25T04:38:59.619Z,17.33
2018-07-25T04:41:29.034Z,17.45
2018-07-25T04:43:58.233Z,17.55
2018-07-25T04:46:27.510Z,17.49
2018-07-25T04:48:56.823Z,17.62
2018-07-25T04:51:26.371Z,17.81
2018-07-25T04:53:55.565Z,17.95
2018-07-25T04:56:24.742Z,18.02
2018-07-25T04:58:53.960Z,18.01
2018-07-25T05:01:23.179Z,18.17
2018-07-25T05:03:52.411Z,18.31
2018-07-25T05:06:21.611Z,18.37
2018-07-25T05:08:50.798Z,18.54
2018-07-25T05:11:20.407Z,18.62
2018-07-25T05:13:49.738Z,18.73
2018-07-25T05:16:18.910Z,18.84
2018-07-25T05:18:48.123Z,19.04
2018-07-25T05:21:17.319Z,19.20
2018-07-25T05:23:46.534Z,19.32
2018-07-25T05:26:15.826Z,19.41
2018-07-25T05:28:45.127Z,19.62
2018-07-25T05:31:14.351Z,19.83
2018-07-25T05:33:43.595Z,19.89
2018-07-25T05:36:12.798Z,20.10
2018-07-25T05:38:41.999Z,20.25
2018-07-25T05:41:11.179Z,20.40
2018-07-25T05:43:40.383Z,20.69
2018-07-25T05:46:09.622Z,20.82
2018-07-25T05:48:39.242Z,20.92
2018-07-25T05:51:08.442Z,21.10
2018-07-25T05:53:37.854Z,21.42
2018-07-25T05:56:07.858Z,21.88
2018-07-25T05:58:37.233Z,22.06
2018-07-25T06:01:06.436Z,23.06
2018-07-25T06:03:35.679Z,24.16
2018-07-25T06:06:04.945Z,25.08
2018-07-25T06:08:34.146Z,25.87
2018-07-25T06:11:03.402Z,26.40
2018-07-25T06:13:32.604Z,26.96
2018-07-25T06:16:01.792Z,27.47
2018-07-25T06:18:31.044Z,27.71
2018-07-25T06:21:00.193Z,28.12
2018-07-25T06:23:29.398Z,28.51
2018-07-25T06:25:58.954Z,29.19
2018-07-25T06:28:28.527Z,29.42
2018-07-25T06:30:57.706Z,30.06
2018-07-25T06:33:27.021Z,30.52
2018-07-25T06:35:56.302Z,30.44
2018-07-25T06:38:25.983Z,30.91
2018-07-25T06:40:55.187Z,31.38
2018-07-25T06:43:24.463Z,31.03
2018-07-25T06:45:53.592Z,31.38
2018-07-25T06:48:22.790Z,31.81
2018-07-25T06:50:52.016Z,31.17
2018-07-25T06:53:21.388Z,31.59
2018-07-25T06:55:50.567Z,31.93
2018-07-25T06:58:20.266Z,32.00
2018-07-25T07:00:49.435Z,32.22
2018-07-25T07:03:18.964Z,32.94
2018-07-25T07:05:48.355Z,32.97
2018-07-25T07:08:17.531Z,33.41
2018-07-25T07:10:46.718Z,33.60
2018-07-25T07:13:15.928Z,33.20
2018-07-25T07:15:45.403Z,33.84
2018-07-25T07:18:14.615Z,33.84
2018-07-25T07:20:43.827Z,34.12
2018-07-25T07:23:13.022Z,34.73
2018-07-25T07:25:42.268Z,35.28
2018-07-25T07:28:11.451Z,35.00
2018-07-25T07:30:40.676Z,34.85
2018-07-25T07:33:10.215Z,36.46
2018-07-25T07:35:39.626Z,37.35
2018-07-25T07:38:08.856Z,36.90
2018-07-25T07:40:38.356Z,36.68
2018-07-25T07:43:07.902Z,38.15
2018-07-25T07:45:37.400Z,37.78
2018-07-25T07:48:06.746Z,38.24
2018-07-25T07:50:35.951Z,38.51
2018-07-25T07:53:05.181Z,38.61
2018-07-25T07:55:35.271Z,38.75
2018-07-25T07:58:04.512Z,38.87
2018-07-25T08:00:33.691Z,38.13
2018-07-25T08:03:06.779Z,38.42
2018-07-25T08:05:36.839Z,38.15
2018-07-25T08:08:06.034Z,38.15
2018-07-25T08:10:35.298Z,38.48
2018-07-25T08:13:04.898Z,37.50
2018-07-25T08:15:34.059Z,39.43
2018-07-25T08:18:03.599Z,39.41
2018-07-25T08:20:32.702Z,40.41
2018-07-25T08:23:02.043Z,39.38
2018-07-25T08:25:31.218Z,40.21
2018-07-25T08:28:00.392Z,40.82
2018-07-25T08:30:29.576Z,40.06
2018-07-25T08:32:58.752Z,42.23
2018-07-25T08:35:28.235Z,39.88
2018-07-25T08:37:57.406Z,39.37
2018-07-25T08:40:26.600Z,40.91
2018-07-25T08:42:55.791Z,43.22
2018-07-25T08:45:25.003Z,42.69
2018-07-25T08:47:54.182Z,40.21
2018-07-25T08:50:24.106Z,40.57
2018-07-25T08:52:53.646Z,41.56
2018-07-25T08:55:22.731Z,41.50
2018-07-25T08:57:52.088Z,41.95
2018-07-25T09:00:21.257Z,42.38
2018-07-25T09:02:50.395Z,43.07
2018-07-25T09:05:19.570Z,42.25
2018-07-25T09:07:48.932Z,43.35
2018-07-25T09:10:18.115Z,43.34
2018-07-25T09:12:47.324Z,43.75
2018-07-25T09:15:16.447Z,45.18
2018-07-25T09:17:45.610Z,43.99
2018-07-25T09:20:14.796Z,42.67
2018-07-25T09:22:44.059Z,43.76
2018-07-25T09:25:13.350Z,43.12
2018-07-25T09:27:42.492Z,43.22
2018-07-25T09:30:11.903Z,45.27
2018-07-25T09:32:41.051Z,45.33
2018-07-25T09:35:10.243Z,44.50
2018-07-25T09:37:39.499Z,44.52
2018-07-25T09:40:08.999Z,45.55
2018-07-25T09:42:38.507Z,45.21
2018-07-25T09:45:08.342Z,46.32
2018-07-25T09:47:37.824Z,46.36
2018-07-25T09:50:08.091Z,45.31
2018-07-25T09:52:37.647Z,44.91
2018-07-25T09:55:07.475Z,46.04
2018-07-25T09:57:36.963Z,44.62
2018-07-25T10:00:08.472Z,45.58
2018-07-25T10:02:38.072Z,45.56
2018-07-25T10:05:07.690Z,44.54
2018-07-25T10:07:37.177Z,45.38
2018-07-25T10:10:06.946Z,45.39
2018-07-25T10:12:36.087Z,45.02
2018-07-25T10:15:05.536Z,45.88
2018-07-25T10:17:34.695Z,44.66
2018-07-25T10:20:03.943Z,44.66
2018-07-25T10:22:33.450Z,44.48
2018-07-25T10:25:02.647Z,45.99
2018-07-25T10:27:31.907Z,46.97
2018-07-25T10:30:00.987Z,46.67
2018-07-25T10:32:30.539Z,45.69
2018-07-25T10:34:59.695Z,46.14
2018-07-25T10:37:28.852Z,45.86
2018-07-25T10:39:58.183Z,46.08
2018-07-25T10:42:27.375Z,47.32
2018-07-25T10:44:56.667Z,47.38
2018-07-25T10:47:25.839Z,46.58
2018-07-25T10:49:55.183Z,46.45
2018-07-25T10:52:24.524Z,46.59
2018-07-25T10:54:53.712Z,47.31
2018-07-25T10:57:23.188Z,47.02
2018-07-25T10:59:52.392Z,47.65
2018-07-25T11:02:22.212Z,48.49
2018-07-25T11:04:51.487Z,47.53
2018-07-25T11:07:20.647Z,47.45
2018-07-25T11:09:49.983Z,47.20
2018-07-25T11:12:19.171Z,46.44
2018-07-25T11:14:48.363Z,47.77
2018-07-25T11:17:17.504Z,46.36
2018-07-25T11:19:46.718Z,45.23
2018-07-25T11:22:16.154Z,46.58
2018-07-25T11:24:45.352Z,46.88
2018-07-25T11:27:14.699Z,48.41
2018-07-25T11:29:44.115Z,45.70
2018-07-25T11:32:13.283Z,44.52
2018-07-25T11:34:42.454Z,41.21
2018-07-25T11:37:11.623Z,39.89
2018-07-25T11:39:40.792Z,38.75
2018-07-25T11:42:10.223Z,41.65
2018-07-25T11:44:39.619Z,44.25
2018-07-25T11:47:08.770Z,44.28
2018-07-25T11:49:37.948Z,45.11
2018-07-25T11:52:07.627Z,43.79
2018-07-25T11:54:36.798Z,45.34
2018-07-25T11:57:06.196Z,45.59
2018-07-25T11:59:35.359Z,45.26
2018-07-25T12:02:04.674Z,45.01
2018-07-25T12:04:34.224Z,45.77
2018-07-25T12:07:03.394Z,45.44
2018-07-25T12:09:32.963Z,46.36
2018-07-25T12:12:02.151Z,46.02
2018-07-25T12:14:31.286Z,45.18
2018-07-25T12:17:00.459Z,44.50
2018-07-25T12:19:29.619Z,45.98
2018-07-25T12:21:58.800Z,44.62
2018-07-25T12:24:28.016Z,41.55
2018-07-25T12:26:57.316Z,39.28
2018-07-25T12:29:26.419Z,39.68
2018-07-25T12:31:55.702Z,40.99
2018-07-25T12:36:54.643Z,43.71
2018-07-25T12:39:24.031Z,42.82
2018-07-25T12:41:53.227Z,40.83
2018-07-25T12:44:23.244Z,41.13
2018-07-25T12:46:52.645Z,40.06
2018-07-25T12:49:21.839Z,38.77
2018-07-25T12:51:51.028Z,41.27
2018-07-25T12:54:20.205Z,43.18
2018-07-25T12:56:49.371Z,44.31
2018-07-25T12:59:18.544Z,44.16
2018-07-25T13:01:48.355Z,44.41
2018-07-25T13:04:17.517Z,45.67
2018-07-25T13:06:46.750Z,45.96
2018-07-25T13:09:15.987Z,44.57
2018-07-25T13:11:45.124Z,42.30
2018-07-25T13:14:14.292Z,41.66
2018-07-25T13:16:43.682Z,43.87
2018-07-25T13:19:12.866Z,42.21
2018-07-25T13:21:42.059Z,39.92
2018-07-25T13:24:11.223Z,39.07
2018-07-25T13:26:40.412Z,41.07
2018-07-25T13:29:09.601Z,42.50
2018-07-25T13:31:38.767Z,42.51
2018-07-25T13:34:08.128Z,44.01
2018-07-25T13:36:37.638Z,44.05
2018-07-25T13:39:07.938Z,42.44
2018-07-25T13:41:37.123Z,40.91
2018-07-25T13:44:07.103Z,41.58
2018-07-25T13:46:36.979Z,42.99
2018-07-25T13:49:06.179Z,43.25
2018-07-25T13:51:35.351Z,41.46
2018-07-25T13:54:04.599Z,40.31
2018-07-25T13:56:33.995Z,41.69
2018-07-25T13:59:03.314Z,42.29
2018-07-25T14:01:32.492Z,43.30
2018-07-25T14:04:01.772Z,43.34
2018-07-25T14:06:31.707Z,42.61
2018-07-25T14:09:00.867Z,43.85
2018-07-25T14:11:30.083Z,44.64
2018-07-25T14:13:59.299Z,42.80
2018-07-25T14:16:28.524Z,42.07
2018-07-25T14:18:58.186Z,41.01
2018-07-25T14:21:27.687Z,40.90
2018-07-25T14:23:57.033Z,42.28
2018-07-25T14:26:26.035Z,42.26
2018-07-25T14:28:55.247Z,42.46
2018-07-25T14:31:24.367Z,42.67
2018-07-25T14:33:53.791Z,43.90
2018-07-25T14:36:23.349Z,39.67
2018-07-25T14:38:53.266Z,39.96
2018-07-25T14:41:22.561Z,39.40
2018-07-25T14:43:51.843Z,39.77
2018-07-25T14:46:21.257Z,40.04
2018-07-25T14:48:50.403Z,39.06
2018-07-25T14:51:19.650Z,37.80
2018-07-25T14:53:48.752Z,37.51
2018-07-25T14:56:17.931Z,37.17
2018-07-25T14:58:48.007Z,36.67
2018-07-25T15:01:17.234Z,36.68
2018-07-25T15:03:46.483Z,36.27
2018-07-25T15:06:15.679Z,36.33
2018-07-25T15:08:44.914Z,36.62
2018-07-25T15:11:14.088Z,36.50
2018-07-25T15:13:44.270Z,36.85
2018-07-25T15:16:13.466Z,36.51
2018-07-25T15:18:42.887Z,36.85
2018-07-25T15:21:12.099Z,37.13
2018-07-25T15:23:52.597Z,37.15
2018-07-25T15:26:22.249Z,37.25
2018-07-25T15:28:51.457Z,36.61
2018-07-25T15:31:20.710Z,36.65
2018-07-25T15:33:49.882Z,37.01
2018-07-25T15:36:32.454Z,37.82
2018-07-25T15:39:02.567Z,38.30
2018-07-25T15:41:31.739Z,38.35
2018-07-25T15:44:01.381Z,38.19
2018-07-25T15:46:30.623Z,38.59
2018-07-25T15:48:59.883Z,38.08
2018-07-25T15:51:29.067Z,38.45
2018-07-25T15:53:58.210Z,37.85
2018-07-25T15:56:27.578Z,37.78
2018-07-25T15:58:56.815Z,38.11
2018-07-25T16:01:25.999Z,37.14
2018-07-25T16:03:55.519Z,36.72
2018-07-25T16:06:24.741Z,36.82
2018-07-25T16:08:54.171Z,36.71
2018-07-25T16:11:23.607Z,37.19
2018-07-25T16:13:53.089Z,36.74
2018-07-25T16:16:22.269Z,36.62
2018-07-25T16:18:51.688Z,36.78
2018-07-25T16:21:21.375Z,36.59
2018-07-25T16:23:50.563Z,36.09
2018-07-25T16:26:19.870Z,35.69
2018-07-25T16:28:51.558Z,35.59
2018-07-25T16:31:23.762Z,35.87
2018-07-25T16:33:52.998Z,35.92
2018-07-25T16:36:22.148Z,35.82
2018-07-25T16:38:52.355Z,36.08
2018-07-25T16:41:21.521Z,35.96
2018-07-25T16:43:52.309Z,35.82
2018-07-25T16:46:21.491Z,35.79
2018-07-25T16:48:50.668Z,35.67
2018-07-25T16:51:19.823Z,35.01
2018-07-25T16:53:49.027Z,34.82
2018-07-25T16:56:18.175Z,34.52
2018-07-25T16:58:47.509Z,34.10
2018-07-25T17:01:16.711Z,34.11
2018-07-25T17:03:45.894Z,34.14
2018-07-25T17:06:15.088Z,33.99
2018-07-25T17:08:44.279Z,34.21
2018-07-25T17:11:13.491Z,34.35
2018-07-25T17:13:42.762Z,33.77
2018-07-25T17:16:12.696Z,34.08
2018-07-25T17:18:41.916Z,34.13
2018-07-25T17:21:11.318Z,33.86
2018-07-25T17:23:40.487Z,33.87
2018-07-25T17:26:09.708Z,34.20
2018-07-25T17:28:39.103Z,34.21
2018-07-25T17:31:08.283Z,34.16
2018-07-25T17:33:37.463Z,33.95
2018-07-25T17:36:06.627Z,33.80
2018-07-25T17:38:35.843Z,33.61
2018-07-25T17:41:05.099Z,33.68
2018-07-25T17:43:34.643Z,33.66
2018-07-25T17:46:03.868Z,33.56
2018-07-25T17:48:33.026Z,33.50
2018-07-25T17:51:02.174Z,33.23
2018-07-25T17:53:31.735Z,33.07
2018-07-25T17:56:00.883Z,33.00
2018-07-25T17:58:30.087Z,32.73
2018-07-25T18:00:59.311Z,32.49
2018-07-25T18:03:28.501Z,32.52
2018-07-25T18:05:57.631Z,32.46
2018-07-25T18:08:26.851Z,32.33
2018-07-25T18:10:56.080Z,32.23
2018-07-25T18:13:30.407Z,32.12
2018-07-25T18:16:00.311Z,32.20
2018-07-25T18:18:29.493Z,32.13
2018-07-25T18:20:59.425Z,32.08
2018-07-25T18:23:28.959Z,31.90
2018-07-25T18:25:58.146Z,31.83
2018-07-25T18:28:27.309Z,31.79
2018-07-25T18:30:56.543Z,31.88
2018-07-25T18:33:25.754Z,31.81
2018-07-25T18:35:54.955Z,31.74
2018-07-25T18:38:24.748Z,31.70
2018-07-25T18:40:53.926Z,31.63
2018-07-25T18:43:23.110Z,31.51
2018-07-25T18:45:52.488Z,31.48
2018-07-25T18:48:21.882Z,31.24
2018-07-25T18:50:51.447Z,31.07
2018-07-25T18:53:20.720Z,30.86
2018-07-25T18:55:49.891Z,30.76
2018-07-25T18:58:19.063Z,30.52
2018-07-25T19:00:48.232Z,30.29
2018-07-25T19:03:17.448Z,30.14
2018-07-25T19:05:46.606Z,30.02
2018-07-25T19:08:15.784Z,30.01
2018-07-25T19:10:44.959Z,29.92
2018-07-25T19:13:20.160Z,29.85
2018-07-25T19:15:49.493Z,29.80
2018-07-25T19:18:20.130Z,29.69
2018-07-25T19:20:49.531Z,29.68
2018-07-25T19:23:19.096Z,29.67
2018-07-25T19:25:49.175Z,29.54
2018-07-25T19:28:18.346Z,29.35
2018-07-25T19:30:47.523Z,29.21
2018-07-25T19:33:16.751Z,28.95
2018-07-25T19:35:45.947Z,28.90
2018-07-25T19:38:15.144Z,28.83
2018-07-25T19:40:44.295Z,28.72
2018-07-25T19:43:13.502Z,28.58
2018-07-25T19:45:42.653Z,28.43
2018-07-25T19:48:11.843Z,28.18
2018-07-25T19:50:41.435Z,28.05
2018-07-25T19:53:11.138Z,27.82
2018-07-25T19:55:40.371Z,27.76
2018-07-25T19:58:09.620Z,27.78
2018-07-25T20:00:39.059Z,27.67
2018-07-25T20:03:08.600Z,27.40
2018-07-25T20:05:37.763Z,27.22
2018-07-25T20:08:06.938Z,27.14
2018-07-25T20:10:36.088Z,26.98
2018-07-25T20:13:05.240Z,26.84
2018-07-25T20:15:39.650Z,26.76
2018-07-25T20:18:09.964Z,26.58
2018-07-25T20:20:40.190Z,26.53
2018-07-25T20:23:09.363Z,26.60
2018-07-25T20:25:39.048Z,26.93
2018-07-25T20:28:10.287Z,27.31
2018-07-25T20:30:39.806Z,27.65
2018-07-25T20:33:08.967Z,27.64
2018-07-25T20:35:38.279Z,27.55
2018-07-25T20:38:07.451Z,27.52
2018-07-25T20:40:36.644Z,27.47
2018-07-25T20:43:05.950Z,27.45
2018-07-25T20:45:35.431Z,27.29
2018-07-25T20:48:04.618Z,27.16
2018-07-25T20:50:33.808Z,27.01
2018-07-25T20:53:03.314Z,26.85
2018-07-25T20:55:32.813Z,26.76
2018-07-25T20:58:01.967Z,26.63
2018-07-25T21:00:34.644Z,26.42
2018-07-25T21:03:05.339Z,26.30
2018-07-25T21:05:34.615Z,26.12
2018-07-25T21:08:03.794Z,25.97
2018-07-25T21:10:32.992Z,25.82
2018-07-25T21:13:02.409Z,25.69
2018-07-25T21:15:31.597Z,25.70
2018-07-25T21:18:00.752Z,25.50
2018-07-25T21:20:29.927Z,25.33
2018-07-25T21:22:59.106Z,25.21
2018-07-25T21:25:28.600Z,25.22
2018-07-25T21:27:57.839Z,25.23
2018-07-25T21:30:27.119Z,25.17
2018-07-25T21:32:56.394Z,25.23
2018-07-25T21:35:25.567Z,25.34
2018-07-25T21:37:54.743Z,25.70
2018-07-25T21:40:23.922Z,25.84
2018-07-25T21:42:53.291Z,25.89
2018-07-25T21:45:22.476Z,25.88
2018-07-25T21:47:51.615Z,25.89
2018-07-25T21:50:20.799Z,25.89
2018-07-25T21:52:49.958Z,25.88
2018-07-25T21:55:19.141Z,25.77
2018-07-25T21:57:49.543Z,25.84
2018-07-25T22:00:18.725Z,25.81
2018-07-25T22:02:48.008Z,25.79
2018-07-25T22:05:17.503Z,25.71
2018-07-25T22:07:47.219Z,25.76
2018-07-25T22:10:16.423Z,25.76
2018-07-25T22:12:45.588Z,25.74
2018-07-25T22:15:14.775Z,25.67
2018-07-25T22:17:43.960Z,25.69
2018-07-25T22:20:13.491Z,25.60
2018-07-25T22:22:42.950Z,25.59
2018-07-25T22:25:12.128Z,25.53
2018-07-25T22:27:44.307Z,25.67
2018-07-25T22:30:13.620Z,25.58
2018-07-25T22:32:42.759Z,25.55
2018-07-25T22:35:12.670Z,25.46
2018-07-25T22:37:42.646Z,25.47
2018-07-25T22:40:11.827Z,25.49
2018-07-25T22:42:40.986Z,25.42
2018-07-25T22:45:10.167Z,25.37
2018-07-25T22:47:40.051Z,25.33
2018-07-25T22:50:09.572Z,25.33
2018-07-25T22:52:38.734Z,25.24
2018-07-25T22:55:08.103Z,25.24
2018-07-25T22:57:37.288Z,25.19
2018-07-25T23:00:06.888Z,25.25
2018-07-25T23:02:36.104Z,25.15
2018-07-25T23:05:05.611Z,25.22
2018-07-25T23:07:34.999Z,25.37
2018-07-25T23:10:04.780Z,25.38
2018-07-25T23:12:34.062Z,25.42
2018-07-25T23:15:03.248Z,25.42
2018-07-25T23:17:32.409Z,25.46
2018-07-25T23:20:02.012Z,25.41
2018-07-25T23:22:38.999Z,25.53
2018-07-25T23:25:08.183Z,25.47
2018-07-25T23:27:37.675Z,25.56
2018-07-25T23:30:06.859Z,25.41
2018-07-25T23:32:36.008Z,25.43
2018-07-25T23:35:05.837Z,25.42
2018-07-25T23:37:34.981Z,25.34
2018-07-25T23:40:04.203Z,25.39
2018-07-25T23:42:33.801Z,25.37
2018-07-25T23:45:03.350Z,25.31
2018-07-25T23:47:32.527Z,25.33
2018-07-25T23:50:01.711Z,25.26
2018-07-25T23:52:31.083Z,25.18
2018-07-25T23:55:00.315Z,25.02
2018-07-25T23:57:29.507Z,24.94
2018-07-25T23:59:58.719Z,24.91
